sensor_id;sensor_type;location;lat;lon;timestamp;pressure;altitude;pressure_sealevel;temperature;humidity
61939;BME280;47897;50.322;18.892;2022-09-09T00:02:36;57696.35;;;-145.38;79.65
61939;BME280;47897;50.322;18.892;2022-09-09T00:05:19;57681.91;;;-145.38;79.58
61939;BME280;47897;50.322;18.892;2022-09-09T00:07:54;57685.73;;;-145.38;79.47
61939;BME280;47897;50.322;18.892;2022-09-09T00:13:19;57701.45;;;-145.38;79.42
61939;BME280;47897;50.322;18.892;2022-09-09T00:21:18;57679.35;;;-145.38;79.29
61939;BME280;47897;50.322;18.892;2022-09-09T00:23:54;57678.93;;;-145.38;79.25
61939;BME280;47897;50.322;18.892;2022-09-09T00:26:38;57694.65;;;-145.38;79.08
61939;BME280;47897;50.322;18.892;2022-09-09T00:31:39;57686.15;;;-145.38;79.00
61939;BME280;47897;50.322;18.892;2022-09-09T00:34:15;57681.91;;;-145.38;78.89
61939;BME280;47897;50.322;18.892;2022-09-09T00:36:45;57697.63;;;-145.38;78.80
61939;BME280;47897;50.322;18.892;2022-09-09T00:39:37;57695.07;;;-145.38;78.67
61939;BME280;47897;50.322;18.892;2022-09-09T00:42:19;57691.25;;;-145.38;78.64
61939;BME280;47897;50.322;18.892;2022-09-09T00:53:11;57678.93;;;-145.38;79.00
61939;BME280;47897;50.322;18.892;2022-09-09T00:58:25;57678.51;;;-145.38;79.28
61939;BME280;47897;50.322;18.892;2022-09-09T01:03:38;57698.90;;;-145.38;79.46
61939;BME280;47897;50.322;18.892;2022-09-09T01:11:21;57679.78;;;-145.38;79.65
61939;BME280;47897;50.322;18.892;2022-09-09T01:13:53;57683.18;;;-145.38;79.73
61939;BME280;47897;50.322;18.892;2022-09-09T01:16:26;57687.43;;;-145.38;79.72
61939;BME280;47897;50.322;18.892;2022-09-09T01:18:56;57701.88;;;-145.38;79.81
61939;BME280;47897;50.322;18.892;2022-09-09T01:26:58;57673.83;;;-145.38;80.25
61939;BME280;47897;50.322;18.892;2022-09-09T01:29:28;57706.98;;;-145.38;80.26
61939;BME280;47897;50.322;18.892;2022-09-09T01:34:27;57681.91;;;-145.38;80.12
61939;BME280;47897;50.322;18.892;2022-09-09T01:39:28;57691.25;;;-145.38;80.23
61939;BME280;47897;50.322;18.892;2022-09-09T01:41:56;57703.57;;;-145.38;80.35
61939;BME280;47897;50.322;18.892;2022-09-09T01:44:24;57696.78;;;-145.38;80.35
61939;BME280;47897;50.322;18.892;2022-09-09T01:46:52;57698.90;;;-145.38;80.32
61939;BME280;47897;50.322;18.892;2022-09-09T01:49:19;57699.32;;;-145.38;80.34
61939;BME280;47897;50.322;18.892;2022-09-09T01:51:51;57690.83;;;-145.38;80.37
61939;BME280;47897;50.322;18.892;2022-09-09T01:54:20;57712.07;;;-145.38;80.51
61939;BME280;47897;50.322;18.892;2022-09-09T01:57:15;57692.10;;;-145.38;80.42
61939;BME280;47897;50.322;18.892;2022-09-09T02:00:12;57706.13;;;-145.38;80.48
61939;BME280;47897;50.322;18.892;2022-09-09T02:05:38;57704.85;;;-145.38;80.62
61939;BME280;47897;50.322;18.892;2022-09-09T02:08:15;57684.03;;;-145.38;80.55
61939;BME280;47897;50.322;18.892;2022-09-09T02:13:29;57702.73;;;-145.38;80.31
61939;BME280;47897;50.322;18.892;2022-09-09T02:16:00;57693.80;;;-145.38;80.24
61939;BME280;47897;50.322;18.892;2022-09-09T02:18:39;57704.43;;;-145.38;80.16
61939;BME280;47897;50.322;18.892;2022-09-09T02:21:07;57688.28;;;-145.38;80.06
61939;BME280;47897;50.322;18.892;2022-09-09T02:23:40;57682.32;;;-145.38;80.11
61939;BME280;47897;50.322;18.892;2022-09-09T02:26:12;57696.35;;;-145.38;80.08
61939;BME280;47897;50.322;18.892;2022-09-09T02:28:48;57701.02;;;-145.38;79.99
61939;BME280;47897;50.322;18.892;2022-09-09T02:31:20;57703.57;;;-145.38;79.96
61939;BME280;47897;50.322;18.892;2022-09-09T02:33:55;57695.93;;;-145.38;79.79
61939;BME280;47897;50.322;18.892;2022-09-09T02:36:26;57704.00;;;-145.38;79.58
61939;BME280;47897;50.322;18.892;2022-09-09T02:38:54;57686.15;;;-145.38;79.57
61939;BME280;47897;50.322;18.892;2022-09-09T02:41:28;57694.65;;;-145.38;79.59
61939;BME280;47897;50.322;18.892;2022-09-09T02:43:57;57680.63;;;-145.38;79.51
61939;BME280;47897;50.322;18.892;2022-09-09T02:51:52;57698.90;;;-145.38;79.31
61939;BME280;47897;50.322;18.892;2022-09-09T02:54:29;57706.98;;;-145.38;79.32
61939;BME280;47897;50.322;18.892;2022-09-09T02:57:04;57697.20;;;-145.38;79.26
61939;BME280;47897;50.322;18.892;2022-09-09T02:59:33;57704.43;;;-145.38;79.10
61939;BME280;47897;50.322;18.892;2022-09-09T03:02:00;57688.27;;;-145.38;78.99
61939;BME280;47897;50.322;18.892;2022-09-09T03:04:27;57699.32;;;-145.38;78.83
61939;BME280;47897;50.322;18.892;2022-09-09T03:06:55;57691.25;;;-145.38;78.64
61939;BME280;47897;50.322;18.892;2022-09-09T03:09:22;57698.48;;;-145.38;78.44
61939;BME280;47897;50.322;18.892;2022-09-09T03:11:50;57711.23;;;-145.38;78.34
61939;BME280;47897;50.322;18.892;2022-09-09T03:14:17;57697.63;;;-145.38;78.22
61939;BME280;47897;50.322;18.892;2022-09-09T03:16:47;57696.77;;;-145.38;78.06
61939;BME280;47897;50.322;18.892;2022-09-09T03:19:15;57687.01;;;-145.38;77.89
61939;BME280;47897;50.322;18.892;2022-09-09T03:21:41;57715.48;;;-145.38;77.68
61939;BME280;47897;50.322;18.892;2022-09-09T03:24:08;57705.70;;;-145.38;77.59
61939;BME280;47897;50.322;18.892;2022-09-09T03:26:36;57699.75;;;-145.38;77.52
61939;BME280;47897;50.322;18.892;2022-09-09T03:29:04;57695.07;;;-145.38;77.46
61939;BME280;47897;50.322;18.892;2022-09-09T03:31:34;57695.50;;;-145.38;77.28
61939;BME280;47897;50.322;18.892;2022-09-09T03:34:02;57720.15;;;-145.38;77.25
61939;BME280;47897;50.322;18.892;2022-09-09T03:36:30;57697.63;;;-145.38;77.11
61939;BME280;47897;50.322;18.892;2022-09-09T03:38:57;57692.95;;;-145.38;76.91
61939;BME280;47897;50.322;18.892;2022-09-09T03:41:25;57711.23;;;-145.38;76.77
61939;BME280;47897;50.322;18.892;2022-09-09T03:43:53;57682.76;;;-145.38;76.78
61939;BME280;47897;50.322;18.892;2022-09-09T03:46:22;57708.68;;;-145.38;76.60
61939;BME280;47897;50.322;18.892;2022-09-09T03:48:49;57691.68;;;-145.38;76.38
61939;BME280;47897;50.322;18.892;2022-09-09T03:51:16;57698.48;;;-145.38;76.33
61939;BME280;47897;50.322;18.892;2022-09-09T03:53:44;57684.46;;;-145.38;76.39
61939;BME280;47897;50.322;18.892;2022-09-09T03:56:11;57695.50;;;-145.38;76.43
61939;BME280;47897;50.322;18.892;2022-09-09T03:58:38;57695.93;;;-145.38;76.20
61939;BME280;47897;50.322;18.892;2022-09-09T04:01:09;57703.15;;;-145.38;76.20
61939;BME280;47897;50.322;18.892;2022-09-09T04:03:37;57696.77;;;-145.38;76.15
61939;BME280;47897;50.322;18.892;2022-09-09T04:06:06;57693.80;;;-145.38;76.15
61939;BME280;47897;50.322;18.892;2022-09-09T04:08:34;57700.60;;;-145.38;76.02
61939;BME280;47897;50.322;18.892;2022-09-09T04:11:02;57704.43;;;-145.38;76.08
61939;BME280;47897;50.322;18.892;2022-09-09T04:13:35;57689.98;;;-145.38;76.05
61939;BME280;47897;50.322;18.892;2022-09-09T04:16:04;57703.15;;;-145.38;75.95
61939;BME280;47897;50.322;18.892;2022-09-09T04:18:32;57706.55;;;-145.38;75.75
61939;BME280;47897;50.322;18.892;2022-09-09T04:20:59;57684.46;;;-145.38;75.76
61939;BME280;47897;50.322;18.892;2022-09-09T04:23:27;57687.85;;;-145.38;75.88
61939;BME280;47897;50.322;18.892;2022-09-09T04:25:58;57695.07;;;-145.38;76.06
61939;BME280;47897;50.322;18.892;2022-09-09T04:28:28;57687.43;;;-145.38;76.15
61939;BME280;47897;50.322;18.892;2022-09-09T04:30:56;57691.68;;;-145.38;76.11
61939;BME280;47897;50.322;18.892;2022-09-09T04:33:24;57709.52;;;-145.38;75.90
61939;BME280;47897;50.322;18.892;2022-09-09T04:35:54;57692.95;;;-145.38;75.90
61939;BME280;47897;50.322;18.892;2022-09-09T04:38:21;57694.23;;;-145.38;75.98
61939;BME280;47897;50.322;18.892;2022-09-09T04:40:52;57700.18;;;-145.38;76.01
61939;BME280;47897;50.322;18.892;2022-09-09T04:43:20;57693.38;;;-145.38;76.12
61939;BME280;47897;50.322;18.892;2022-09-09T04:45:50;57702.73;;;-145.38;76.22
61939;BME280;47897;50.322;18.892;2022-09-09T04:48:20;57713.77;;;-145.38;76.44
61939;BME280;47897;50.322;18.892;2022-09-09T04:51:14;57702.73;;;-145.38;76.52
61939;BME280;47897;50.322;18.892;2022-09-09T04:53:41;57703.15;;;-145.38;76.72
61939;BME280;47897;50.322;18.892;2022-09-09T04:56:13;57706.13;;;-145.38;76.92
61939;BME280;47897;50.322;18.892;2022-09-09T04:58:41;57709.95;;;-145.38;76.80
61939;BME280;47897;50.322;18.892;2022-09-09T05:01:13;57705.70;;;-145.38;76.86
61939;BME280;47897;50.322;18.892;2022-09-09T05:03:40;57703.15;;;-145.38;77.07
61939;BME280;47897;50.322;18.892;2022-09-09T05:06:10;57706.98;;;-145.38;77.30
61939;BME280;47897;50.322;18.892;2022-09-09T05:08:38;57712.07;;;-145.38;77.18
61939;BME280;47897;50.322;18.892;2022-09-09T05:11:19;57693.80;;;-145.38;77.10
61939;BME280;47897;50.322;18.892;2022-09-09T05:13:47;57713.77;;;-145.38;77.26
61939;BME280;47897;50.322;18.892;2022-09-09T05:16:14;57689.98;;;-145.38;77.31
61939;BME280;47897;50.322;18.892;2022-09-09T05:18:41;57709.10;;;-145.38;77.60
61939;BME280;47897;50.322;18.892;2022-09-09T05:21:10;57712.93;;;-145.38;77.77
61939;BME280;47897;50.322;18.892;2022-09-09T05:23:38;57698.48;;;-145.38;77.97
61939;BME280;47897;50.322;18.892;2022-09-09T05:26:06;57694.65;;;-145.38;78.30
61939;BME280;47897;50.322;18.892;2022-09-09T05:28:34;57697.20;;;-145.38;78.74
61939;BME280;47897;50.322;18.892;2022-09-09T05:31:05;57700.18;;;-145.38;79.12
61939;BME280;47897;50.322;18.892;2022-09-09T05:33:35;57701.02;;;-145.38;79.34
61939;BME280;47897;50.322;18.892;2022-09-09T05:36:05;57706.98;;;-145.38;79.46
61939;BME280;47897;50.322;18.892;2022-09-09T05:38:34;57702.73;;;-145.38;79.53
61939;BME280;47897;50.322;18.892;2022-09-09T05:41:03;57709.52;;;-145.38;79.63
61939;BME280;47897;50.322;18.892;2022-09-09T05:43:30;57712.07;;;-145.38;79.65
61939;BME280;47897;50.322;18.892;2022-09-09T05:46:01;57713.77;;;-145.38;79.64
61939;BME280;47897;50.322;18.892;2022-09-09T05:48:29;57727.37;;;-145.38;79.55
61939;BME280;47897;50.322;18.892;2022-09-09T05:50:57;57698.05;;;-145.38;79.49
61939;BME280;47897;50.322;18.892;2022-09-09T05:53:25;57702.30;;;-145.38;79.42
61939;BME280;47897;50.322;18.892;2022-09-09T05:56:02;57707.82;;;-145.38;79.50
61939;BME280;47897;50.322;18.892;2022-09-09T05:58:33;57721.43;;;-145.38;79.50
61939;BME280;47897;50.322;18.892;2022-09-09T06:01:09;57699.75;;;-145.38;79.59
61939;BME280;47897;50.322;18.892;2022-09-09T06:03:38;57726.95;;;-145.38;79.60
61939;BME280;47897;50.322;18.892;2022-09-09T06:06:09;57695.07;;;-145.38;79.50
61939;BME280;47897;50.322;18.892;2022-09-09T06:08:38;57701.02;;;-145.38;79.54
61939;BME280;47897;50.322;18.892;2022-09-09T06:11:16;57714.20;;;-145.38;79.50
61939;BME280;47897;50.322;18.892;2022-09-09T06:13:43;57717.18;;;-145.38;79.30
61939;BME280;47897;50.322;18.892;2022-09-09T06:16:12;57726.10;;;-145.38;79.18
61939;BME280;47897;50.322;18.892;2022-09-09T06:18:40;57697.63;;;-145.38;79.31
61939;BME280;47897;50.322;18.892;2022-09-09T06:21:16;57733.74;;;-145.38;79.18
61939;BME280;47897;50.322;18.892;2022-09-09T06:23:44;57727.37;;;-145.38;78.74
61939;BME280;47897;50.322;18.892;2022-09-09T06:26:18;57711.65;;;-145.38;78.50
61939;BME280;47897;50.322;18.892;2022-09-09T06:28:47;57706.55;;;-145.38;78.67
61939;BME280;47897;50.322;18.892;2022-09-09T06:31:16;57725.25;;;-145.38;78.55
61939;BME280;47897;50.322;18.892;2022-09-09T06:33:51;57717.18;;;-145.38;78.33
61939;BME280;47897;50.322;18.892;2022-09-09T06:36:29;57713.77;;;-145.38;78.31
61939;BME280;47897;50.322;18.892;2022-09-09T06:38:58;57720.57;;;-145.38;77.96
61939;BME280;47897;50.322;18.892;2022-09-09T06:41:27;57698.48;;;-145.38;78.34
61939;BME280;47897;50.322;18.892;2022-09-09T06:43:55;57722.70;;;-145.38;77.91
61939;BME280;47897;50.322;18.892;2022-09-09T06:46:25;57716.32;;;-145.38;77.55
61939;BME280;47897;50.322;18.892;2022-09-09T06:48:55;57721.43;;;-145.38;77.18
61939;BME280;47897;50.322;18.892;2022-09-09T06:51:35;57713.35;;;-145.38;76.88
61939;BME280;47897;50.322;18.892;2022-09-09T06:54:03;57732.90;;;-145.38;76.60
61939;BME280;47897;50.322;18.892;2022-09-09T06:56:35;57728.23;;;-145.38;76.37
61939;BME280;47897;50.322;18.892;2022-09-09T06:59:04;57729.07;;;-145.38;75.93
61939;BME280;47897;50.322;18.892;2022-09-09T07:01:34;57718.45;;;-145.38;75.71
61939;BME280;47897;50.322;18.892;2022-09-09T07:04:02;57718.02;;;-145.38;75.22
61939;BME280;47897;50.322;18.892;2022-09-09T07:06:32;57723.13;;;-145.38;75.41
61939;BME280;47897;50.322;18.892;2022-09-09T07:09:03;57711.23;;;-145.38;75.50
61939;BME280;47897;50.322;18.892;2022-09-09T07:11:38;57715.04;;;-145.38;74.81
61939;BME280;47897;50.322;18.892;2022-09-09T07:14:06;57699.32;;;-145.38;74.34
61939;BME280;47897;50.322;18.892;2022-09-09T07:16:34;57716.32;;;-145.38;73.91
61939;BME280;47897;50.322;18.892;2022-09-09T07:19:04;57740.54;;;-145.38;73.65
61939;BME280;47897;50.322;18.892;2022-09-09T07:21:32;57711.23;;;-145.38;73.35
61939;BME280;47897;50.322;18.892;2022-09-09T07:23:59;57721.00;;;-145.38;73.05
61939;BME280;47897;50.322;18.892;2022-09-09T07:26:28;57701.88;;;-145.38;71.39
61939;BME280;47897;50.322;18.892;2022-09-09T07:28:56;57721.00;;;-145.38;71.20
61939;BME280;47897;50.322;18.892;2022-09-09T07:33:53;57714.20;;;-145.38;71.42
61939;BME280;47897;50.322;18.892;2022-09-09T07:36:22;57706.55;;;-145.38;70.23
61939;BME280;47897;50.322;18.892;2022-09-09T07:38:52;57708.25;;;-145.38;69.20
61939;BME280;47897;50.322;18.892;2022-09-09T07:41:25;57692.52;;;-145.38;68.37
61939;BME280;47897;50.322;18.892;2022-09-09T07:43:53;57719.30;;;-145.38;68.86
61939;BME280;47897;50.322;18.892;2022-09-09T07:46:24;57694.65;;;-145.38;68.94
61939;BME280;47897;50.322;18.892;2022-09-09T07:48:54;57698.48;;;-145.38;69.09
61939;BME280;47897;50.322;18.892;2022-09-09T07:51:26;57698.05;;;-145.38;69.29
61939;BME280;47897;50.322;18.892;2022-09-09T07:53:56;57711.65;;;-145.38;69.71
61939;BME280;47897;50.322;18.892;2022-09-09T07:56:25;57693.38;;;-145.38;69.21
61939;BME280;47897;50.322;18.892;2022-09-09T07:58:54;57706.55;;;-145.38;68.67
61939;BME280;47897;50.322;18.892;2022-09-09T08:01:27;57701.45;;;-145.38;67.68
61939;BME280;47897;50.322;18.892;2022-09-09T08:04:03;57725.24;;;-145.38;68.03
61939;BME280;47897;50.322;18.892;2022-09-09T08:06:35;57699.75;;;-145.38;67.67
61939;BME280;47897;50.322;18.892;2022-09-09T08:09:03;57703.15;;;-145.38;67.67
61939;BME280;47897;50.322;18.892;2022-09-09T08:11:30;57706.13;;;-145.38;67.68
61939;BME280;47897;50.322;18.892;2022-09-09T08:13:59;57713.77;;;-145.38;67.79
61939;BME280;47897;50.322;18.892;2022-09-09T08:16:29;57708.68;;;-145.38;68.23
61939;BME280;47897;50.322;18.892;2022-09-09T08:18:57;57713.35;;;-145.38;68.57
61939;BME280;47897;50.322;18.892;2022-09-09T08:21:29;57688.70;;;-145.38;68.45
61939;BME280;47897;50.322;18.892;2022-09-09T08:23:59;57699.75;;;-145.38;68.72
61939;BME280;47897;50.322;18.892;2022-09-09T08:26:29;57711.65;;;-145.38;68.00
61939;BME280;47897;50.322;18.892;2022-09-09T08:28:58;57715.05;;;-145.38;67.95
61939;BME280;47897;50.322;18.892;2022-09-09T08:31:27;57692.52;;;-145.38;66.60
61939;BME280;47897;50.322;18.892;2022-09-09T08:33:55;57710.38;;;-145.38;66.72
61939;BME280;47897;50.322;18.892;2022-09-09T08:36:26;57704.85;;;-145.38;66.06
61939;BME280;47897;50.322;18.892;2022-09-09T08:38:55;57709.10;;;-145.38;64.31
61939;BME280;47897;50.322;18.892;2022-09-09T08:44:04;57704.43;;;-145.38;65.02
61939;BME280;47897;50.322;18.892;2022-09-09T08:47:06;57694.65;;;-145.38;65.29
61939;BME280;47897;50.322;18.892;2022-09-09T08:52:25;57698.48;;;-145.38;65.57
61939;BME280;47897;50.322;18.892;2022-09-09T08:55:09;57683.18;;;-145.38;65.11
61939;BME280;47897;50.322;18.892;2022-09-09T08:57:39;57698.48;;;-145.38;65.11
61939;BME280;47897;50.322;18.892;2022-09-09T09:00:09;57697.20;;;-145.38;64.17
61939;BME280;47897;50.322;18.892;2022-09-09T09:02:48;57704.43;;;-145.38;64.69
61939;BME280;47897;50.322;18.892;2022-09-09T09:05:36;57704.00;;;-145.38;64.74
61939;BME280;47897;50.322;18.892;2022-09-09T09:08:39;57715.48;;;-145.38;63.93
61939;BME280;47897;50.322;18.892;2022-09-09T09:11:10;57712.50;;;-145.38;64.08
61939;BME280;47897;50.322;18.892;2022-09-09T09:13:44;57688.28;;;-145.38;63.82
61939;BME280;47897;50.322;18.892;2022-09-09T09:19:16;57705.27;;;-145.38;64.18
61939;BME280;47897;50.322;18.892;2022-09-09T09:21:50;57714.20;;;-145.38;64.29
61939;BME280;47897;50.322;18.892;2022-09-09T09:24:25;57699.32;;;-145.38;63.92
61939;BME280;47897;50.322;18.892;2022-09-09T09:26:54;57699.75;;;-145.38;64.28
61939;BME280;47897;50.322;18.892;2022-09-09T09:29:23;57705.27;;;-145.38;64.38
61939;BME280;47897;50.322;18.892;2022-09-09T09:31:56;57698.05;;;-145.38;64.49
61939;BME280;47897;50.322;18.892;2022-09-09T09:34:25;57704.00;;;-145.38;63.89
61939;BME280;47897;50.322;18.892;2022-09-09T09:36:54;57699.32;;;-145.38;63.43
61939;BME280;47897;50.322;18.892;2022-09-09T09:41:50;57700.60;;;-145.38;61.33
61939;BME280;47897;50.322;18.892;2022-09-09T09:44:30;57708.68;;;-145.38;62.03
61939;BME280;47897;50.322;18.892;2022-09-09T09:47:14;57694.23;;;-145.38;62.38
61939;BME280;47897;50.322;18.892;2022-09-09T09:49:55;57716.32;;;-145.38;60.79
61939;BME280;47897;50.322;18.892;2022-09-09T09:52:30;57713.77;;;-145.38;60.82
61939;BME280;47897;50.322;18.892;2022-09-09T09:54:58;57679.36;;;-145.38;60.70
61939;BME280;47897;50.322;18.892;2022-09-09T09:57:31;57704.85;;;-145.38;60.61
61939;BME280;47897;50.322;18.892;2022-09-09T10:00:20;57709.52;;;-145.38;59.79
61939;BME280;47897;50.322;18.892;2022-09-09T10:02:48;57710.38;;;-145.38;60.22
61939;BME280;47897;50.322;18.892;2022-09-09T10:05:21;57700.18;;;-145.38;60.03
61939;BME280;47897;50.322;18.892;2022-09-09T10:08:03;57707.40;;;-145.38;58.94
61939;BME280;47897;50.322;18.892;2022-09-09T10:19:05;57697.20;;;-145.38;58.70
61939;BME280;47897;50.322;18.892;2022-09-09T10:21:51;57698.90;;;-145.38;59.05
61939;BME280;47897;50.322;18.892;2022-09-09T10:24:47;57708.25;;;-145.38;59.12
61939;BME280;47897;50.322;18.892;2022-09-09T10:27:36;57695.93;;;-145.38;57.61
61939;BME280;47897;50.322;18.892;2022-09-09T10:30:19;57699.32;;;-145.38;57.62
61939;BME280;47897;50.322;18.892;2022-09-09T10:32:49;57692.95;;;-145.38;57.70
61939;BME280;47897;50.322;18.892;2022-09-09T10:41:04;57690.83;;;-145.38;56.50
61939;BME280;47897;50.322;18.892;2022-09-09T10:52:14;57685.73;;;-145.38;55.48
61939;BME280;47897;50.322;18.892;2022-09-09T10:54:58;57697.20;;;-145.38;54.78
61939;BME280;47897;50.322;18.892;2022-09-09T11:03:04;57685.73;;;-145.38;51.74
61939;BME280;47897;50.322;18.892;2022-09-09T11:05:40;57682.33;;;-145.38;50.44
61939;BME280;47897;50.322;18.892;2022-09-09T11:08:20;57692.95;;;-145.38;51.77
61939;BME280;47897;50.322;18.892;2022-09-09T11:11:13;57695.93;;;-145.38;51.81
61939;BME280;47897;50.322;18.892;2022-09-09T11:14:00;57707.40;;;-145.38;51.36
61939;BME280;47897;50.322;18.892;2022-09-09T11:19:14;57667.03;;;-145.38;50.76
61939;BME280;47897;50.322;18.892;2022-09-09T11:21:49;57691.25;;;-145.38;50.08
61939;BME280;47897;50.322;18.892;2022-09-09T11:24:22;57673.83;;;-145.38;49.02
61939;BME280;47897;50.322;18.892;2022-09-09T11:26:59;57674.68;;;-145.38;50.32
61939;BME280;47897;50.322;18.892;2022-09-09T11:32:29;57694.65;;;-145.38;50.24
61939;BME280;47897;50.322;18.892;2022-09-09T11:35:14;57665.76;;;-145.38;50.09
61939;BME280;47897;50.322;18.892;2022-09-09T11:40:42;57693.80;;;-145.38;50.56
61939;BME280;47897;50.322;18.892;2022-09-09T11:45:42;57689.13;;;-145.38;49.82
61939;BME280;47897;50.322;18.892;2022-09-09T11:48:39;57664.91;;;-145.38;49.58
61939;BME280;47897;50.322;18.892;2022-09-09T11:51:26;57685.73;;;-145.38;50.91
61939;BME280;47897;50.322;18.892;2022-09-09T11:53:57;57692.52;;;-145.38;49.80
61939;BME280;47897;50.322;18.892;2022-09-09T12:01:35;57680.63;;;-145.38;49.69
61939;BME280;47897;50.322;18.892;2022-09-09T12:06:46;57687.85;;;-145.38;49.42
61939;BME280;47897;50.322;18.892;2022-09-09T12:09:47;57686.16;;;-145.38;50.42
61939;BME280;47897;50.322;18.892;2022-09-09T12:19:42;57692.10;;;-145.38;48.93
61939;BME280;47897;50.322;18.892;2022-09-09T12:30:50;57684.46;;;-145.38;49.52
61939;BME280;47897;50.322;18.892;2022-09-09T12:33:18;57694.23;;;-145.38;49.31
61939;BME280;47897;50.322;18.892;2022-09-09T12:35:58;57681.05;;;-145.38;50.07
61939;BME280;47897;50.322;18.892;2022-09-09T12:38:38;57703.15;;;-145.38;50.36
61939;BME280;47897;50.322;18.892;2022-09-09T12:41:06;57671.28;;;-145.38;50.98
61939;BME280;47897;50.322;18.892;2022-09-09T12:43:46;57692.95;;;-145.38;49.52
61939;BME280;47897;50.322;18.892;2022-09-09T12:46:31;57673.83;;;-145.38;49.82
61939;BME280;47897;50.322;18.892;2022-09-09T12:49:01;57686.57;;;-145.38;49.77
61939;BME280;47897;50.322;18.892;2022-09-09T12:51:30;57689.55;;;-145.38;49.50
61939;BME280;47897;50.322;18.892;2022-09-09T12:53:58;57678.51;;;-145.38;49.21
61939;BME280;47897;50.322;18.892;2022-09-09T12:56:28;57676.38;;;-145.38;48.01
61939;BME280;47897;50.322;18.892;2022-09-09T12:58:57;57698.90;;;-145.38;48.53
61939;BME280;47897;50.322;18.892;2022-09-09T13:04:20;57700.18;;;-145.38;48.15
61939;BME280;47897;50.322;18.892;2022-09-09T13:06:48;57686.16;;;-145.38;48.13
61939;BME280;47897;50.322;18.892;2022-09-09T13:09:15;57682.33;;;-145.38;48.15
61939;BME280;47897;50.322;18.892;2022-09-09T13:11:52;57684.45;;;-145.38;47.84
61939;BME280;47897;50.322;18.892;2022-09-09T13:14:32;57660.66;;;-145.38;47.23
61939;BME280;47897;50.322;18.892;2022-09-09T13:17:07;57675.96;;;-145.38;46.59
61939;BME280;47897;50.322;18.892;2022-09-09T13:19:44;57681.91;;;-145.38;45.98
61939;BME280;47897;50.322;18.892;2022-09-09T13:27:35;57692.10;;;-145.38;46.99
61939;BME280;47897;50.322;18.892;2022-09-09T13:33:03;57671.28;;;-145.38;46.88
61939;BME280;47897;50.322;18.892;2022-09-09T13:35:32;57669.58;;;-145.38;46.25
61939;BME280;47897;50.322;18.892;2022-09-09T13:38:06;57680.21;;;-145.38;46.00
61939;BME280;47897;50.322;18.892;2022-09-09T13:40:35;57684.88;;;-145.38;46.21
61939;BME280;47897;50.322;18.892;2022-09-09T13:43:03;57681.48;;;-145.38;46.27
61939;BME280;47897;50.322;18.892;2022-09-09T13:45:30;57692.52;;;-145.38;47.02
61939;BME280;47897;50.322;18.892;2022-09-09T13:48:08;57684.02;;;-145.38;47.32
61939;BME280;47897;50.322;18.892;2022-09-09T13:50:36;57684.03;;;-145.38;47.95
61939;BME280;47897;50.322;18.892;2022-09-09T13:53:03;57680.21;;;-145.38;47.61
61939;BME280;47897;50.322;18.892;2022-09-09T13:55:30;57669.58;;;-145.38;46.87
61939;BME280;47897;50.322;18.892;2022-09-09T13:58:00;57675.11;;;-145.38;47.35
61939;BME280;47897;50.322;18.892;2022-09-09T14:00:34;57686.15;;;-145.38;47.10
61939;BME280;47897;50.322;18.892;2022-09-09T14:03:04;57680.63;;;-145.38;47.26
61939;BME280;47897;50.322;18.892;2022-09-09T14:05:32;57676.38;;;-145.38;47.28
61939;BME280;47897;50.322;18.892;2022-09-09T14:08:02;57669.16;;;-145.38;47.25
61939;BME280;47897;50.322;18.892;2022-09-09T14:10:29;57678.08;;;-145.38;47.32
61939;BME280;47897;50.322;18.892;2022-09-09T14:12:56;57679.36;;;-145.38;47.35
61939;BME280;47897;50.322;18.892;2022-09-09T14:15:23;57674.26;;;-145.38;47.25
61939;BME280;47897;50.322;18.892;2022-09-09T14:17:50;57681.48;;;-145.38;47.21
61939;BME280;47897;50.322;18.892;2022-09-09T14:20:18;57679.36;;;-145.38;47.59
61939;BME280;47897;50.322;18.892;2022-09-09T14:22:46;57667.04;;;-145.38;47.31
61939;BME280;47897;50.322;18.892;2022-09-09T14:25:13;57671.28;;;-145.38;48.15
61939;BME280;47897;50.322;18.892;2022-09-09T14:27:42;57687.43;;;-145.38;47.58
61939;BME280;47897;50.322;18.892;2022-09-09T14:30:10;57692.52;;;-145.38;47.49
61939;BME280;47897;50.322;18.892;2022-09-09T14:32:37;57684.03;;;-145.38;48.03
61939;BME280;47897;50.322;18.892;2022-09-09T14:35:04;57655.55;;;-145.38;47.31
61939;BME280;47897;50.322;18.892;2022-09-09T14:37:31;57666.18;;;-145.38;47.64
61939;BME280;47897;50.322;18.892;2022-09-09T14:39:58;57682.32;;;-145.38;47.75
61939;BME280;47897;50.322;18.892;2022-09-09T14:42:25;57684.45;;;-145.38;47.40
61939;BME280;47897;50.322;18.892;2022-09-09T14:44:53;57679.36;;;-145.38;47.83
61939;BME280;47897;50.322;18.892;2022-09-09T14:47:20;57692.52;;;-145.38;47.27
61939;BME280;47897;50.322;18.892;2022-09-09T14:49:47;57699.32;;;-145.38;47.49
61939;BME280;47897;50.322;18.892;2022-09-09T14:52:16;57674.68;;;-145.38;46.32
61939;BME280;47897;50.322;18.892;2022-09-09T14:54:43;57692.10;;;-145.38;46.40
61939;BME280;47897;50.322;18.892;2022-09-09T14:57:10;57664.49;;;-145.38;46.85
61939;BME280;47897;50.322;18.892;2022-09-09T14:59:37;57657.69;;;-145.38;47.18
61939;BME280;47897;50.322;18.892;2022-09-09T15:02:04;57685.30;;;-145.38;47.70
61939;BME280;47897;50.322;18.892;2022-09-09T15:04:31;57680.20;;;-145.38;47.36
61939;BME280;47897;50.322;18.892;2022-09-09T15:06:58;57674.68;;;-145.38;46.83
61939;BME280;47897;50.322;18.892;2022-09-09T15:09:25;57683.18;;;-145.38;46.23
61939;BME280;47897;50.322;18.892;2022-09-09T15:11:52;57672.55;;;-145.38;46.12
61939;BME280;47897;50.322;18.892;2022-09-09T15:14:19;57676.38;;;-145.38;46.26